Airfield :
LOGIN :

Register | Disclaimer

   EN    FR    IT 

 










Legend :    VFR   Marginal VFR   IFR   Intensive IFR   Very Intensive IFR
Visi :
Ceiling :
>= 8 km
>= 3000ft
5 to 8 km
1000 to 3000 ft
1500m to 5 km
500 to 1000 ft
800 to 1500m
200 to 500 ft
< 800m
< 200 ft
Symbols :   Thunderstorms  Fog  Heavy snow  Heavy precipitations  Wind > 20 kt
SIGMETs :     Misc.  Thunderstorms  Icing  Turbulence  Mountain Waves  Volcanic Ashes






- Airport Elevation : 28 ft
- IATA code : SOZ


LFKS - Solenzara

CURRENT METAR :
  • 011300Z AUTO 01005KT 9999 OVC054 13/05 Q1015

EXPIRED METARs :
  • 011230Z AUTO 02006KT 330V060 9999 FEW038 BKN056 OVC066 13/05 Q1015
  • 011200Z AUTO 36004KT 330V070 9999 BKN056 OVC066 13/05 Q1015
  • 011130Z AUTO 01005KT 9999 OVC056 13/05 Q1015
  • 011100Z AUTO 01007KT 9999 OVC054 13/04 Q1015
  • 011030Z AUTO 02007KT 360V060 9999 SCT058 14/04 Q1016

TAF TAF LFKS
Valid from the 01 at 09:00 until the 02 at 09:00 UTC


010800Z 0109/0209 27005KT 9999 FEW060
BECMG 0110/0112 02010KT SCT040
BECMG 0116/0118 27005KT



MET'MAP, your aeronautical weather chart ! - Copyright ORBIFLY December 2007 - Disclaimer

ORBIFLY MET'MAP TEAM :

Programming & Development : Alexandra Zaïnal
Original concept : Baudouin d'Aumeries
Technical & hardware support : Manuel Goepfert
Assistance : Marc-Olivier Méhu




SOURCES & CREDITS :

   NOAA